Stockton, Alabama
Current Conditions -  °F | °C
As of 10:53 PM on Saturday 22 Nov 2014 (Local Time) from KBFM Reporting Station
Overcast Overcast  
Wind Chill: 62°   Ceiling: 900
Heat Index: 62°   Visibility: 10mi
Dew Point: 59°   Wind: 12mph
Humidity: 90%   Direction: 90°E
Pressure: 29.98"   Gusts: NA
Location:  31°N, 87.86°W
Report Text: KBFM 230453Z AUTO 09010KT 10SM OVC009 17/15 A2998 RMK AO2 SLP151 T01670150
Loading
Personal Weather Stations






























Interactive Weather Map New forecast layout! Learn more

10-Day Weather Forecast

Advertisements
Track Severe Weather on mobile